sensor_id;sensor_type;location;lat;lon;timestamp;pressure;altitude;pressure_sealevel;temperature;humidity
19624;BME280;9959;49.798;9.928;2022-07-06T00:00:38;100036.72;;;18.56;84.52
19624;BME280;9959;49.798;9.928;2022-07-06T00:03:06;100034.06;;;18.56;84.52
19624;BME280;9959;49.798;9.928;2022-07-06T00:05:34;100034.88;;;18.62;100.00
19624;BME280;9959;49.798;9.928;2022-07-06T00:08:02;100030.03;;;18.48;100.00
19624;BME280;9959;49.798;9.928;2022-07-06T00:10:30;100033.25;;;18.50;100.00
19624;BME280;9959;49.798;9.928;2022-07-06T00:12:59;100036.72;;;18.56;88.89
19624;BME280;9959;49.798;9.928;2022-07-06T00:15:27;100039.94;;;18.53;100.00
19624;BME280;9959;49.798;9.928;2022-07-06T00:17:55;100034.56;;;18.48;100.00
19624;BME280;9959;49.798;9.928;2022-07-06T00:20:23;100048.19;;;18.41;nan
19624;BME280;9959;49.798;9.928;2022-07-06T00:22:51;100041.19;;;18.35;100.00
19624;BME280;9959;49.798;9.928;2022-07-06T00:25:19;100043.09;;;18.40;100.00
19624;BME280;9959;49.798;9.928;2022-07-06T00:27:47;100049.94;;;18.20;nan
19624;BME280;9959;49.798;9.928;2022-07-06T00:30:18;100043.00;;;18.19;83.32
19624;BME280;9959;49.798;9.928;2022-07-06T00:32:47;100044.09;;;18.18;84.41
19624;BME280;9959;49.798;9.928;2022-07-06T00:35:15;100045.41;;;18.15;88.76
19624;BME280;9959;49.798;9.928;2022-07-06T00:37:43;100038.97;;;18.11;100.00
19624;BME280;9959;49.798;9.928;2022-07-06T00:40:11;100041.41;;;18.18;83.68
19624;BME280;9959;49.798;9.928;2022-07-06T00:42:40;100043.00;;;18.14;94.56
19624;BME280;9959;49.798;9.928;2022-07-06T00:45:09;100040.06;;;18.15;nan
19624;BME280;9959;49.798;9.928;2022-07-06T00:47:39;100048.56;;;18.07;100.00
19624;BME280;9959;49.798;9.928;2022-07-06T00:50:09;100052.31;;;18.16;85.85
19624;BME280;9959;49.798;9.928;2022-07-06T00:52:45;100055.78;;;18.12;100.00
19624;BME280;9959;49.798;9.928;2022-07-06T00:55:15;100045.63;;;18.09;84.37
19624;BME280;9959;49.798;9.928;2022-07-06T00:57:45;100043.25;;;18.17;84.41
19624;BME280;9959;49.798;9.928;2022-07-06T01:00:15;100043.03;;;18.24;83.33
19624;BME280;9959;49.798;9.928;2022-07-06T01:02:45;100054.19;;;18.16;100.00
19624;BME280;9959;49.798;9.928;2022-07-06T01:05:14;100051.53;;;18.16;85.85
19624;BME280;9959;49.798;9.928;2022-07-06T01:07:45;100052.31;;;18.11;100.00
19624;BME280;9959;49.798;9.928;2022-07-06T01:10:14;100047.72;;;17.96;82.89
19624;BME280;9959;49.798;9.928;2022-07-06T01:12:44;100047.91;;;17.90;nan
19624;BME280;9959;49.798;9.928;2022-07-06T01:15:14;100051.31;;;17.75;88.62
19624;BME280;9959;49.798;9.928;2022-07-06T01:17:42;100049.97;;;17.77;100.00
19624;BME280;9959;49.798;9.928;2022-07-06T01:20:13;100045.97;;;17.80;100.00
19624;BME280;9959;49.798;9.928;2022-07-06T01:22:41;100034.78;;;17.78;nan
19624;BME280;9959;49.798;9.928;2022-07-06T01:25:10;100034.53;;;17.84;100.00
19624;BME280;9959;49.798;9.928;2022-07-06T01:27:39;100042.84;;;17.88;nan
19624;BME280;9959;49.798;9.928;2022-07-06T01:30:09;100043.63;;;17.83;100.00
19624;BME280;9959;49.798;9.928;2022-07-06T01:32:38;100036.38;;;17.79;100.00
19624;BME280;9959;49.798;9.928;2022-07-06T01:35:08;100037.13;;;17.69;100.00
19624;BME280;9959;49.798;9.928;2022-07-06T01:37:37;100035.72;;;17.61;82.80
19624;BME280;9959;49.798;9.928;2022-07-06T01:40:08;100043.72;;;17.61;nan
19624;BME280;9959;49.798;9.928;2022-07-06T01:42:36;100035.72;;;17.56;88.56
19624;BME280;9959;49.798;9.928;2022-07-06T01:45:06;100041.31;;;17.55;nan
19624;BME280;9959;49.798;9.928;2022-07-06T01:47:34;100035.13;;;17.49;100.00
19624;BME280;9959;49.798;9.928;2022-07-06T01:50:04;100034.88;;;17.50;82.77
19624;BME280;9959;49.798;9.928;2022-07-06T01:52:33;100035.59;;;17.41;100.00
19624;BME280;9959;49.798;9.928;2022-07-06T01:55:03;100040.09;;;17.35;100.00
19624;BME280;9959;49.798;9.928;2022-07-06T01:57:31;100037.69;;;17.33;100.00
19624;BME280;9959;49.798;9.928;2022-07-06T01:59:58;100043.78;;;17.29;nan
19624;BME280;9959;49.798;9.928;2022-07-06T02:02:26;100039.75;;;17.26;88.47
19624;BME280;9959;49.798;9.928;2022-07-06T02:04:54;100042.97;;;17.28;100.00
19624;BME280;9959;49.798;9.928;2022-07-06T02:07:22;100045.59;;;17.23;82.69
19624;BME280;9959;49.798;9.928;2022-07-06T02:09:50;100049.09;;;17.29;100.00
19624;BME280;9959;49.798;9.928;2022-07-06T02:12:19;100049.88;;;17.24;100.00
19624;BME280;9959;49.798;9.928;2022-07-06T02:14:47;100048.53;;;17.22;100.00
19624;BME280;9959;49.798;9.928;2022-07-06T02:17:15;100049.91;;;17.29;100.00
19624;BME280;9959;49.798;9.928;2022-07-06T02:19:43;100047.22;;;17.24;100.00
19624;BME280;9959;49.798;9.928;2022-07-06T02:22:11;100042.16;;;17.28;100.00
19624;BME280;9959;49.798;9.928;2022-07-06T02:24:38;100045.84;;;17.22;100.00
19624;BME280;9959;49.798;9.928;2022-07-06T02:27:06;100050.34;;;17.16;nan
19624;BME280;9959;49.798;9.928;2022-07-06T02:29:36;100043.38;;;17.15;100.00
19624;BME280;9959;49.798;9.928;2022-07-06T02:32:04;100050.25;;;17.06;100.00
19624;BME280;9959;49.798;9.928;2022-07-06T02:34:32;100047.53;;;17.01;100.00
19624;BME280;9959;49.798;9.928;2022-07-06T02:37:00;100043.75;;;16.96;100.00
19624;BME280;9959;49.798;9.928;2022-07-06T02:39:27;100048.53;;;16.94;88.36
19624;BME280;9959;49.798;9.928;2022-07-06T02:41:55;100048.09;;;16.80;100.00
19624;BME280;9959;49.798;9.928;2022-07-06T02:44:23;100049.41;;;16.78;100.00
19624;BME280;9959;49.798;9.928;2022-07-06T02:46:52;100045.88;;;16.72;100.00
19624;BME280;9959;49.798;9.928;2022-07-06T02:49:20;100051.97;;;16.68;100.00
19624;BME280;9959;49.798;9.928;2022-07-06T02:51:48;100050.91;;;16.69;100.00
19624;BME280;9959;49.798;9.928;2022-07-06T02:54:16;100051.41;;;16.65;100.00
19624;BME280;9959;49.798;9.928;2022-07-06T02:56:44;100052.66;;;16.58;100.00
19624;BME280;9959;49.798;9.928;2022-07-06T02:59:17;100052.34;;;16.54;100.00
19624;BME280;9959;49.798;9.928;2022-07-06T03:01:45;100059.31;;;16.55;100.00
19624;BME280;9959;49.798;9.928;2022-07-06T03:04:14;100065.59;;;16.49;100.00
19624;BME280;9959;49.798;9.928;2022-07-06T03:06:42;100060.03;;;16.51;nan
19624;BME280;9959;49.798;9.928;2022-07-06T03:09:10;100057.69;;;16.54;93.99
19624;BME280;9959;49.798;9.928;2022-07-06T03:11:38;100059.97;;;16.45;100.00
19624;BME280;9959;49.798;9.928;2022-07-06T03:14:06;100062.91;;;16.44;nan
19624;BME280;9959;49.798;9.928;2022-07-06T03:16:34;100070.81;;;16.39;100.00
19624;BME280;9959;49.798;9.928;2022-07-06T03:19:02;100067.09;;;16.40;100.00
19624;BME280;9959;49.798;9.928;2022-07-06T03:21:31;100064.97;;;16.42;82.78
19624;BME280;9959;49.798;9.928;2022-07-06T03:23:59;100071.22;;;16.30;100.00
19624;BME280;9959;49.798;9.928;2022-07-06T03:26:27;100077.41;;;16.36;100.00
19624;BME280;9959;49.798;9.928;2022-07-06T03:28:55;100070.94;;;16.27;100.00
19624;BME280;9959;49.798;9.928;2022-07-06T03:31:23;100071.19;;;16.25;100.00
19624;BME280;9959;49.798;9.928;2022-07-06T03:33:51;100071.72;;;16.27;100.00
19624;BME280;9959;49.798;9.928;2022-07-06T03:36:19;100068.78;;;16.24;100.00
19624;BME280;9959;49.798;9.928;2022-07-06T03:38:48;100071.69;;;16.22;100.00
19624;BME280;9959;49.798;9.928;2022-07-06T03:41:16;100077.84;;;16.06;100.00
19624;BME280;9959;49.798;9.928;2022-07-06T03:43:44;100082.91;;;16.07;100.00
19624;BME280;9959;49.798;9.928;2022-07-06T03:46:12;100076.78;;;16.07;100.00
19624;BME280;9959;49.798;9.928;2022-07-06T03:48:40;100076.78;;;16.07;100.00
19624;BME280;9959;49.798;9.928;2022-07-06T03:51:08;100081.63;;;16.10;100.00
19624;BME280;9959;49.798;9.928;2022-07-06T03:53:37;100078.94;;;16.10;100.00
19624;BME280;9959;49.798;9.928;2022-07-06T03:56:07;100076.88;;;16.12;100.00
19624;BME280;9959;49.798;9.928;2022-07-06T03:58:52;100076.53;;;16.08;100.00
19624;BME280;9959;49.798;9.928;2022-07-06T04:01:20;100086.94;;;16.10;100.00
19624;BME280;9959;49.798;9.928;2022-07-06T04:03:48;100087.00;;;16.15;100.00
19624;BME280;9959;49.798;9.928;2022-07-06T04:06:16;100092.81;;;16.12;nan
19624;BME280;9959;49.798;9.928;2022-07-06T04:08:44;100087.06;;;16.20;nan
19624;BME280;9959;49.798;9.928;2022-07-06T04:11:14;100079.34;;;16.19;100.00
19624;BME280;9959;49.798;9.928;2022-07-06T04:13:42;100083.59;;;16.20;100.00
19624;BME280;9959;49.798;9.928;2022-07-06T04:16:09;100091.66;;;16.25;100.00
19624;BME280;9959;49.798;9.928;2022-07-06T04:18:37;100090.16;;;16.12;100.00
19624;BME280;9959;49.798;9.928;2022-07-06T04:21:05;100100.56;;;16.13;100.00
19624;BME280;9959;49.798;9.928;2022-07-06T04:23:33;100102.97;;;16.15;100.00
19624;BME280;9959;49.798;9.928;2022-07-06T04:26:01;100105.13;;;16.18;nan
19624;BME280;9959;49.798;9.928;2022-07-06T04:28:30;100108.69;;;16.24;100.00
19624;BME280;9959;49.798;9.928;2022-07-06T04:30:58;100116.66;;;16.24;100.00
19624;BME280;9959;49.798;9.928;2022-07-06T04:33:26;100112.50;;;16.33;100.00
19624;BME280;9959;49.798;9.928;2022-07-06T04:35:54;100117.81;;;16.33;100.00
19624;BME280;9959;49.798;9.928;2022-07-06T04:38:22;100112.47;;;16.28;nan
19624;BME280;9959;49.798;9.928;2022-07-06T04:40:50;100119.38;;;16.29;100.00
19624;BME280;9959;49.798;9.928;2022-07-06T04:43:18;100122.09;;;16.34;100.00
19624;BME280;9959;49.798;9.928;2022-07-06T04:45:48;100128.22;;;16.35;100.00
19624;BME280;9959;49.798;9.928;2022-07-06T04:48:15;100123.03;;;16.45;100.00
19624;BME280;9959;49.798;9.928;2022-07-06T04:50:43;100126.25;;;16.47;100.00
19624;BME280;9959;49.798;9.928;2022-07-06T04:53:11;100125.94;;;16.43;100.00
19624;BME280;9959;49.798;9.928;2022-07-06T04:55:39;100119.66;;;16.50;100.00
19624;BME280;9959;49.798;9.928;2022-07-06T04:58:07;100125.69;;;16.45;100.00
19624;BME280;9959;49.798;9.928;2022-07-06T05:00:36;100133.50;;;16.52;nan
19624;BME280;9959;49.798;9.928;2022-07-06T05:03:05;100138.06;;;16.56;nan
19624;BME280;9959;49.798;9.928;2022-07-06T05:05:33;100135.41;;;16.56;100.00
19624;BME280;9959;49.798;9.928;2022-07-06T05:08:02;100134.44;;;16.62;94.02
19624;BME280;9959;49.798;9.928;2022-07-06T05:10:30;100141.97;;;16.71;100.00
19624;BME280;9959;49.798;9.928;2022-07-06T05:12:58;100135.69;;;16.77;100.00
19624;BME280;9959;49.798;9.928;2022-07-06T05:15:26;100139.63;;;16.74;100.00
19624;BME280;9959;49.798;9.928;2022-07-06T05:17:54;100134.16;;;16.86;100.00
19624;BME280;9959;49.798;9.928;2022-07-06T05:20:24;100134.75;;;16.88;100.00
19624;BME280;9959;49.798;9.928;2022-07-06T05:22:51;100144.47;;;16.99;100.00
19624;BME280;9959;49.798;9.928;2022-07-06T05:25:19;100142.38;;;17.02;nan
19624;BME280;9959;49.798;9.928;2022-07-06T05:27:47;100150.81;;;17.21;nan
19624;BME280;9959;49.798;9.928;2022-07-06T05:30:15;100149.41;;;17.13;83.00
19624;BME280;9959;49.798;9.928;2022-07-06T05:32:43;100148.94;;;17.21;100.00
19624;BME280;9959;49.798;9.928;2022-07-06T05:35:11;100145.38;;;17.38;100.00
19624;BME280;9959;49.798;9.928;2022-07-06T05:38:00;100151.66;;;17.54;100.00
19624;BME280;9959;49.798;9.928;2022-07-06T05:40:28;100154.94;;;17.66;100.00
19624;BME280;9959;49.798;9.928;2022-07-06T05:42:56;100156.09;;;17.75;100.00
19624;BME280;9959;49.798;9.928;2022-07-06T05:45:24;100153.97;;;17.77;100.00
19624;BME280;9959;49.798;9.928;2022-07-06T05:47:52;100155.13;;;17.86;100.00
19624;BME280;9959;49.798;9.928;2022-07-06T05:50:37;100156.44;;;17.84;nan
19624;BME280;9959;49.798;9.928;2022-07-06T05:53:06;100172.88;;;17.71;100.00
19624;BME280;9959;49.798;9.928;2022-07-06T05:55:44;100167.78;;;17.69;100.00
19624;BME280;9959;49.798;9.928;2022-07-06T05:58:12;100172.16;;;17.85;100.00
19624;BME280;9959;49.798;9.928;2022-07-06T06:00:40;100167.53;;;17.71;100.00
19624;BME280;9959;49.798;9.928;2022-07-06T06:03:08;100167.44;;;17.93;100.00
19624;BME280;9959;49.798;9.928;2022-07-06T06:05:36;100172.72;;;18.20;100.00
19624;BME280;9959;49.798;9.928;2022-07-06T06:08:04;100170.63;;;18.27;83.34
19624;BME280;9959;49.798;9.928;2022-07-06T06:10:35;100181.69;;;18.51;100.00
19624;BME280;9959;49.798;9.928;2022-07-06T06:13:02;100184.22;;;18.31;100.00
19624;BME280;9959;49.798;9.928;2022-07-06T06:15:30;100186.31;;;18.24;100.00
19624;BME280;9959;49.798;9.928;2022-07-06T06:17:58;100182.97;;;18.38;100.00
19624;BME280;9959;49.798;9.928;2022-07-06T06:20:27;100176.88;;;18.06;100.00
19624;BME280;9959;49.798;9.928;2022-07-06T06:22:57;100176.19;;;17.88;83.22
19624;BME280;9959;49.798;9.928;2022-07-06T06:25:29;100174.00;;;17.80;94.44
19624;BME280;9959;49.798;9.928;2022-07-06T06:27:59;100176.34;;;18.03;100.00
19624;BME280;9959;49.798;9.928;2022-07-06T06:30:27;100175.63;;;18.18;nan
19624;BME280;9959;49.798;9.928;2022-07-06T06:33:06;100176.31;;;17.98;100.00
19624;BME280;9959;49.798;9.928;2022-07-06T06:35:34;100169.25;;;18.19;83.05
19624;BME280;9959;49.798;9.928;2022-07-06T06:38:02;100175.19;;;18.32;100.00
19624;BME280;9959;49.798;9.928;2022-07-06T06:40:30;100174.13;;;18.33;nan
19624;BME280;9959;49.798;9.928;2022-07-06T06:42:59;100168.44;;;18.72;100.00
19624;BME280;9959;49.798;9.928;2022-07-06T06:45:27;100173.38;;;18.43;nan
19624;BME280;9959;49.798;9.928;2022-07-06T06:47:55;100172.47;;;18.80;100.00
19624;BME280;9959;49.798;9.928;2022-07-06T06:50:23;100183.22;;;18.95;nan
19624;BME280;9959;49.798;9.928;2022-07-06T06:52:51;100167.78;;;19.13;100.00
19624;BME280;9959;49.798;9.928;2022-07-06T06:55:19;100174.78;;;19.45;100.00
19624;BME280;9959;49.798;9.928;2022-07-06T06:57:47;100167.28;;;19.21;86.18
19624;BME280;9959;49.798;9.928;2022-07-06T07:00:16;100165.34;;;19.01;100.00
19624;BME280;9959;49.798;9.928;2022-07-06T07:02:45;100173.69;;;19.20;84.72
19624;BME280;9959;49.798;9.928;2022-07-06T07:05:13;100166.75;;;19.34;83.39
19624;BME280;9959;49.798;9.928;2022-07-06T07:07:41;100174.25;;;19.32;83.30
19624;BME280;9959;49.798;9.928;2022-07-06T07:10:09;100181.22;;;19.49;nan
19624;BME280;9959;49.798;9.928;2022-07-06T07:12:43;100186.00;;;19.31;100.00
19624;BME280;9959;49.798;9.928;2022-07-06T07:15:11;100180.66;;;19.52;100.00
19624;BME280;9959;49.798;9.928;2022-07-06T07:17:40;100181.78;;;19.92;84.93
19624;BME280;9959;49.798;9.928;2022-07-06T07:20:09;100182.34;;;19.84;95.16
19624;BME280;9959;49.798;9.928;2022-07-06T07:22:37;100189.00;;;19.91;nan
19624;BME280;9959;49.798;9.928;2022-07-06T07:25:06;100181.47;;;20.19;100.00
19624;BME280;9959;49.798;9.928;2022-07-06T07:27:34;100185.66;;;20.51;95.39
19624;BME280;9959;49.798;9.928;2022-07-06T07:30:03;100179.09;;;20.13;nan
19624;BME280;9959;49.798;9.928;2022-07-06T07:32:31;100185.34;;;20.78;83.91
19624;BME280;9959;49.798;9.928;2022-07-06T07:35:00;100168.84;;;21.06;100.00
19624;BME280;9959;49.798;9.928;2022-07-06T07:37:29;100177.59;;;21.27;100.00
19624;BME280;9959;49.798;9.928;2022-07-06T07:39:57;100172.84;;;21.13;100.00
19624;BME280;9959;49.798;9.928;2022-07-06T07:42:26;100177.06;;;21.64;100.00
19624;BME280;9959;49.798;9.928;2022-07-06T07:44:54;100176.25;;;21.98;100.00
19624;BME280;9959;49.798;9.928;2022-07-06T07:47:22;100179.94;;;22.32;100.00
19624;BME280;9959;49.798;9.928;2022-07-06T07:49:50;100181.50;;;22.62;100.00
19624;BME280;9959;49.798;9.928;2022-07-06T07:52:19;100181.75;;;21.83;100.00
19624;BME280;9959;49.798;9.928;2022-07-06T07:54:47;100174.63;;;22.75;100.00
19624;BME280;9959;49.798;9.928;2022-07-06T07:57:33;100176.66;;;22.40;100.00
19624;BME280;9959;49.798;9.928;2022-07-06T08:00:02;100178.22;;;22.17;100.00
19624;BME280;9959;49.798;9.928;2022-07-06T08:02:30;100169.84;;;22.91;100.00
19624;BME280;9959;49.798;9.928;2022-07-06T08:04:58;100162.94;;;23.42;100.00
19624;BME280;9959;49.798;9.928;2022-07-06T08:07:27;100168.34;;;23.04;100.00
19624;BME280;9959;49.798;9.928;2022-07-06T08:09:55;100171.47;;;22.92;100.00
19624;BME280;9959;49.798;9.928;2022-07-06T08:12:23;100160.88;;;23.20;100.00
19624;BME280;9959;49.798;9.928;2022-07-06T08:14:51;100157.97;;;23.68;100.00
19624;BME280;9959;49.798;9.928;2022-07-06T08:17:19;100157.09;;;23.21;100.00
19624;BME280;9959;49.798;9.928;2022-07-06T08:19:47;100153.81;;;23.24;100.00
19624;BME280;9959;49.798;9.928;2022-07-06T08:22:15;100158.53;;;23.98;100.00
19624;BME280;9959;49.798;9.928;2022-07-06T08:24:45;100160.25;;;23.75;100.00
19624;BME280;9959;49.798;9.928;2022-07-06T08:27:13;100166.00;;;23.54;86.03
19624;BME280;9959;49.798;9.928;2022-07-06T08:29:41;100167.63;;;23.88;100.00
19624;BME280;9959;49.798;9.928;2022-07-06T08:32:09;100162.72;;;23.58;100.00
19624;BME280;9959;49.798;9.928;2022-07-06T08:34:50;100168.66;;;24.20;nan
19624;BME280;9959;49.798;9.928;2022-07-06T08:37:18;100164.50;;;23.81;100.00
19624;BME280;9959;49.798;9.928;2022-07-06T08:39:47;100165.06;;;23.78;100.00
19624;BME280;9959;49.798;9.928;2022-07-06T08:42:16;100156.59;;;24.73;96.86
19624;BME280;9959;49.798;9.928;2022-07-06T08:44:45;100164.16;;;24.30;100.00
19624;BME280;9959;49.798;9.928;2022-07-06T08:47:14;100166.06;;;23.68;84.63
19624;BME280;9959;49.798;9.928;2022-07-06T08:49:43;100163.63;;;23.34;87.45
19624;BME280;9959;49.798;9.928;2022-07-06T08:52:11;100158.53;;;23.98;100.00
19624;BME280;9959;49.798;9.928;2022-07-06T08:54:40;100160.03;;;23.00;nan
19624;BME280;9959;49.798;9.928;2022-07-06T08:57:09;100169.88;;;23.29;100.00
19624;BME280;9959;49.798;9.928;2022-07-06T08:59:38;100167.63;;;23.69;86.08
19624;BME280;9959;49.798;9.928;2022-07-06T09:02:09;100159.06;;;23.67;100.00
19624;BME280;9959;49.798;9.928;2022-07-06T09:04:38;100171.25;;;24.53;86.33
19624;BME280;9959;49.798;9.928;2022-07-06T09:07:07;100171.72;;;24.83;87.92
19624;BME280;9959;49.798;9.928;2022-07-06T09:09:36;100172.06;;;24.68;87.87
19624;BME280;9959;49.798;9.928;2022-07-06T09:12:11;100174.75;;;24.26;100.00
19624;BME280;9959;49.798;9.928;2022-07-06T09:14:39;100179.53;;;24.29;84.81
19624;BME280;9959;49.798;9.928;2022-07-06T09:17:07;100191.56;;;23.38;85.98
19624;BME280;9959;49.798;9.928;2022-07-06T09:19:45;100173.91;;;22.89;96.22
19624;BME280;9959;49.798;9.928;2022-07-06T09:22:25;100174.44;;;23.67;100.00
19624;BME280;9959;49.798;9.928;2022-07-06T09:24:55;100177.38;;;23.65;100.00
19624;BME280;9959;49.798;9.928;2022-07-06T09:27:29;100186.88;;;25.43;91.11
19624;BME280;9959;49.798;9.928;2022-07-06T09:29:59;100178.41;;;25.36;100.00
19624;BME280;9959;49.798;9.928;2022-07-06T09:32:28;100187.88;;;25.11;91.01
19624;BME280;9959;49.798;9.928;2022-07-06T09:34:56;100187.41;;;24.25;100.00
19624;BME280;9959;49.798;9.928;2022-07-06T09:37:24;100181.72;;;23.80;100.00
19624;BME280;9959;49.798;9.928;2022-07-06T09:39:57;100186.38;;;23.42;96.41
19624;BME280;9959;49.798;9.928;2022-07-06T09:42:25;100175.94;;;23.73;100.00
19624;BME280;9959;49.798;9.928;2022-07-06T09:44:55;100182.34;;;24.66;87.86
19624;BME280;9959;49.798;9.928;2022-07-06T09:47:23;100182.22;;;24.57;100.00
19624;BME280;9959;49.798;9.928;2022-07-06T09:49:55;100191.91;;;23.50;100.00
19624;BME280;9959;49.798;9.928;2022-07-06T09:52:23;100193.22;;;23.53;100.00
19624;BME280;9959;49.798;9.928;2022-07-06T09:54:51;100187.34;;;24.72;nan
19624;BME280;9959;49.798;9.928;2022-07-06T09:57:21;100173.84;;;24.72;85.27
19624;BME280;9959;49.798;9.928;2022-07-06T09:59:50;100177.34;;;26.23;100.00
19624;BME280;9959;49.798;9.928;2022-07-06T10:02:20;100191.19;;;25.44;100.00
19624;BME280;9959;49.798;9.928;2022-07-06T10:04:49;100171.78;;;24.69;84.90
19624;BME280;9959;49.798;9.928;2022-07-06T10:07:21;100178.22;;;24.13;100.00
19624;BME280;9959;49.798;9.928;2022-07-06T10:09:52;100179.81;;;25.56;100.00
19624;BME280;9959;49.798;9.928;2022-07-06T10:12:20;100164.75;;;24.82;86.42
19624;BME280;9959;49.798;9.928;2022-07-06T10:14:49;100164.13;;;25.90;100.00
19624;BME280;9959;49.798;9.928;2022-07-06T10:17:19;100170.31;;;25.59;100.00
19624;BME280;9959;49.798;9.928;2022-07-06T10:19:49;100173.81;;;25.37;100.00
19624;BME280;9959;49.798;9.928;2022-07-06T10:22:18;100171.56;;;24.80;85.28
19624;BME280;9959;49.798;9.928;2022-07-06T10:24:48;100170.06;;;24.73;nan
19624;BME280;9959;49.798;9.928;2022-07-06T10:27:17;100182.41;;;25.02;100.00
19624;BME280;9959;49.798;9.928;2022-07-06T10:29:45;100176.72;;;25.26;85.05
19624;BME280;9959;49.798;9.928;2022-07-06T10:32:13;100168.34;;;26.36;100.00
19624;BME280;9959;49.798;9.928;2022-07-06T10:34:47;100178.41;;;25.59;100.00
19624;BME280;9959;49.798;9.928;2022-07-06T10:37:22;100176.13;;;24.51;100.00
19624;BME280;9959;49.798;9.928;2022-07-06T10:39:51;100164.34;;;24.47;84.83
19624;BME280;9959;49.798;9.928;2022-07-06T10:42:43;100168.16;;;24.60;100.00
19624;BME280;9959;49.798;9.928;2022-07-06T10:45:13;100168.53;;;23.98;100.00
19624;BME280;9959;49.798;9.928;2022-07-06T10:47:42;100162.44;;;24.89;90.93
19624;BME280;9959;49.798;9.928;2022-07-06T10:50:12;100170.22;;;25.27;86.55
19624;BME280;9959;49.798;9.928;2022-07-06T10:52:50;100176.94;;;24.80;100.00
19624;BME280;9959;49.798;9.928;2022-07-06T10:55:31;100170.16;;;24.82;85.67
19624;BME280;9959;49.798;9.928;2022-07-06T10:57:59;100171.13;;;24.86;85.11
19624;BME280;9959;49.798;9.928;2022-07-06T11:00:47;100161.59;;;25.62;100.00
19624;BME280;9959;49.798;9.928;2022-07-06T11:03:33;100165.09;;;26.25;100.00
19624;BME280;9959;49.798;9.928;2022-07-06T11:06:05;100166.41;;;26.94;100.00
19624;BME280;9959;49.798;9.928;2022-07-06T11:08:46;100150.31;;;25.60;88.16
19624;BME280;9959;49.798;9.928;2022-07-06T11:11:16;100160.81;;;23.91;100.00
19624;BME280;9959;49.798;9.928;2022-07-06T11:13:56;100161.09;;;24.36;100.00
19624;BME280;9959;49.798;9.928;2022-07-06T11:16:25;100166.16;;;24.66;100.00
19624;BME280;9959;49.798;9.928;2022-07-06T11:19:03;100173.44;;;25.75;88.20
19624;BME280;9959;49.798;9.928;2022-07-06T11:21:38;100177.16;;;25.20;100.00
19624;BME280;9959;49.798;9.928;2022-07-06T11:24:08;100167.41;;;26.01;85.46
19624;BME280;9959;49.798;9.928;2022-07-06T11:26:36;100162.97;;;26.05;nan
19624;BME280;9959;49.798;9.928;2022-07-06T11:29:07;100169.75;;;27.00;86.31
19624;BME280;9959;49.798;9.928;2022-07-06T11:31:37;100172.75;;;25.47;100.00
19624;BME280;9959;49.798;9.928;2022-07-06T11:34:07;100172.13;;;24.49;96.77
19624;BME280;9959;49.798;9.928;2022-07-06T11:36:37;100168.72;;;24.99;100.00
19624;BME280;9959;49.798;9.928;2022-07-06T11:39:11;100156.13;;;24.94;100.00
19624;BME280;9959;49.798;9.928;2022-07-06T11:41:39;100165.66;;;25.14;97.00
19624;BME280;9959;49.798;9.928;2022-07-06T11:44:16;100164.25;;;25.53;100.00
19624;BME280;9959;49.798;9.928;2022-07-06T11:46:43;100155.84;;;26.09;85.66
19624;BME280;9959;49.798;9.928;2022-07-06T11:49:11;100161.78;;;25.66;85.35
19624;BME280;9959;49.798;9.928;2022-07-06T11:51:42;100165.94;;;25.72;100.00
19624;BME280;9959;49.798;9.928;2022-07-06T11:54:11;100159.16;;;26.14;85.68
19624;BME280;9959;49.798;9.928;2022-07-06T11:56:45;100166.06;;;27.22;100.00
19624;BME280;9959;49.798;9.928;2022-07-06T11:59:15;100158.63;;;28.01;86.23
19624;BME280;9959;49.798;9.928;2022-07-06T12:01:43;100177.53;;;26.84;85.69
19624;BME280;9959;49.798;9.928;2022-07-06T12:04:11;100153.81;;;27.33;86.41
19624;BME280;9959;49.798;9.928;2022-07-06T12:06:43;100158.63;;;26.35;nan
19624;BME280;9959;49.798;9.928;2022-07-06T12:09:11;100160.97;;;25.65;100.00
19624;BME280;9959;49.798;9.928;2022-07-06T12:11:44;100154.47;;;27.30;88.67
19624;BME280;9959;49.798;9.928;2022-07-06T12:14:14;100160.84;;;27.08;87.09
19624;BME280;9959;49.798;9.928;2022-07-06T12:16:42;100150.16;;;27.03;nan
19624;BME280;9959;49.798;9.928;2022-07-06T12:19:10;100148.41;;;26.90;100.00
19624;BME280;9959;49.798;9.928;2022-07-06T12:21:50;100142.81;;;28.42;89.02
19624;BME280;9959;49.798;9.928;2022-07-06T12:24:20;100143.28;;;28.74;87.58
19624;BME280;9959;49.798;9.928;2022-07-06T12:26:49;100134.91;;;27.98;nan
19624;BME280;9959;49.798;9.928;2022-07-06T12:29:18;100148.69;;;27.58;86.10
19624;BME280;9959;49.798;9.928;2022-07-06T12:31:49;100142.63;;;28.17;86.09
19624;BME280;9959;49.798;9.928;2022-07-06T12:34:19;100153.00;;;27.59;100.00
19624;BME280;9959;49.798;9.928;2022-07-06T12:36:49;100144.03;;;27.76;86.54
19624;BME280;9959;49.798;9.928;2022-07-06T12:39:19;100140.94;;;29.27;86.26
19624;BME280;9959;49.798;9.928;2022-07-06T12:41:48;100134.75;;;27.95;100.00
19624;BME280;9959;49.798;9.928;2022-07-06T12:44:18;100138.03;;;27.62;nan
19624;BME280;9959;49.798;9.928;2022-07-06T12:46:46;100131.47;;;27.72;88.80
19624;BME280;9959;49.798;9.928;2022-07-06T12:49:17;100137.72;;;27.28;86.02
19624;BME280;9959;49.798;9.928;2022-07-06T12:51:56;100130.22;;;28.16;86.66
19624;BME280;9959;49.798;9.928;2022-07-06T12:54:26;100134.25;;;27.37;87.18
19624;BME280;9959;49.798;9.928;2022-07-06T12:56:59;100121.09;;;28.72;86.06
19624;BME280;9959;49.798;9.928;2022-07-06T12:59:27;100139.28;;;27.73;nan
19624;BME280;9959;49.798;9.928;2022-07-06T13:01:56;100133.25;;;27.50;nan
19624;BME280;9959;49.798;9.928;2022-07-06T13:04:25;100123.97;;;28.46;86.73
19624;BME280;9959;49.798;9.928;2022-07-06T13:06:55;100134.19;;;28.10;nan
19624;BME280;9959;49.798;9.928;2022-07-06T13:09:26;100139.31;;;28.71;86.43